Station: EHBK - 25/07/2017 16:25Z (il y a 11 minutes)
EHBK 251625Z AUTO 31008KT 250V350 9999 SCT034 OVC040 16/14 Q1010 RERA REDZ TEMPO 7000 RA
Vent du 310º - 8 kt (vent de direction variable de 250º à 350º)
Visibilité > 10 km
Ciel 50% couvert à 3400 pieds - Ciel couvert à 4000 pieds
Température: +16ºC - Point de rosée: +14ºC - QNH: 1010 hPa - Récemment: pluie - Récemment: bruine
Temporairement
Visibilité: 7000 m (pluie)